Time;durP1;ratioP1;P1;durP2;ratioP2;P2;SDS_P1;SDS_P2;PMS_P1;PMS_P2;Temp;Humidity;BMP_temperature;BMP_pressure;BME280_temperature;BME280_humidity;BME280_pressure;Samples;Min_cycle;Max_cycle;Signal;HPM_P1;HPM_P2
2023/03/06 00:00:47;;;;;;;661.53;623.37;;;3.00;99.90;;;;;;6122880;23;20481;-84
2023/03/06 00:03:14;;;;;;;670.63;632.97;;;2.90;99.90;;;;;;6124630;23;20427;-84
2023/03/06 00:05:42;;;;;;;667.73;628.67;;;2.80;99.90;;;;;;6124475;23;20442;-83
2023/03/06 00:08:09;;;;;;;661.40;623.03;;;2.90;99.90;;;;;;6123137;23;20539;-84
2023/03/06 00:10:36;;;;;;;665.87;626.63;;;2.90;99.90;;;;;;6124517;23;20414;-83
2023/03/06 00:13:11;;;;;;;668.80;629.50;;;2.70;99.90;;;;;;6123985;23;20418;-84
2023/03/06 00:15:38;;;;;;;668.77;628.60;;;2.80;99.90;;;;;;6134336;23;20490;-84
2023/03/06 00:18:06;;;;;;;672.97;632.67;;;2.90;99.90;;;;;;6124746;23;20418;-83
2023/03/06 00:20:34;;;;;;;668.03;628.60;;;2.80;99.90;;;;;;6124463;23;20418;-83
2023/03/06 00:23:01;;;;;;;668.43;628.23;;;2.90;99.90;;;;;;6123992;23;20421;-84
2023/03/06 00:25:28;;;;;;;688.50;645.53;;;2.90;99.90;;;;;;6123649;23;20811;-84
2023/03/06 00:27:56;;;;;;;687.30;643.40;;;2.90;99.90;;;;;;6124701;23;20423;-84
2023/03/06 00:30:27;;;;;;;694.57;648.80;;;2.80;99.90;;;;;;6122958;23;20418;-83
2023/03/06 00:32:54;;;;;;;699.53;653.83;;;2.90;99.90;;;;;;6123115;23;20790;-84
2023/03/06 00:35:21;;;;;;;702.60;657.43;;;2.90;99.90;;;;;;6122689;23;20977;-84
2023/03/06 00:37:49;;;;;;;702.13;656.23;;;2.80;99.90;;;;;;6122630;23;20426;-84
2023/03/06 00:40:18;;;;;;;699.20;652.90;;;2.70;99.90;;;;;;6124448;23;20421;-84
2023/03/06 00:42:45;;;;;;;695.13;651.40;;;2.90;99.90;;;;;;6134278;23;20411;-84
2023/03/06 00:45:13;;;;;;;703.30;658.00;;;2.90;99.90;;;;;;6124803;23;20440;-83
2023/03/06 00:47:43;;;;;;;707.20;663.50;;;2.90;99.90;;;;;;6126722;23;20421;-84
2023/03/06 00:50:11;;;;;;;660.97;620.20;;;3.00;99.90;;;;;;6125631;23;20421;-83
2023/03/06 00:52:38;;;;;;;663.67;623.03;;;2.90;99.90;;;;;;6126478;23;20422;-83
2023/03/06 00:55:07;;;;;;;693.13;650.40;;;2.80;99.90;;;;;;6125867;23;20439;-82
2023/03/06 00:57:34;;;;;;;703.50;659.73;;;2.60;99.90;;;;;;6125902;23;20493;-83
2023/03/06 01:00:02;;;;;;;712.30;666.10;;;2.60;99.90;;;;;;6137677;23;20421;-82
2023/03/06 01:02:29;;;;;;;708.30;663.30;;;2.80;99.90;;;;;;6155960;23;20412;-83
2023/03/06 01:04:58;;;;;;;716.50;671.27;;;2.60;99.90;;;;;;6129253;23;20449;-83
2023/03/06 01:07:26;;;;;;;724.37;676.00;;;2.60;99.90;;;;;;6155959;23;20441;-83
2023/03/06 01:09:54;;;;;;;728.27;679.70;;;2.60;99.90;;;;;;6129114;23;20421;-83
2023/03/06 01:12:20;;;;;;;714.53;666.23;;;2.70;99.90;;;;;;6155859;23;20968;-82
2023/03/06 01:14:47;;;;;;;720.23;672.93;;;2.70;99.90;;;;;;6155547;23;20749;-82
2023/03/06 01:17:16;;;;;;;727.47;676.50;;;2.70;99.90;;;;;;6155174;23;20410;-83
2023/03/06 01:19:43;;;;;;;715.67;667.00;;;2.80;99.90;;;;;;6154801;23;20413;-82
2023/03/06 01:22:13;;;;;;;714.47;667.20;;;2.70;99.90;;;;;;6155736;23;20420;-83
2023/03/06 01:24:40;;;;;;;725.13;675.50;;;2.80;99.90;;;;;;6155241;23;20513;-83
2023/03/06 01:27:07;;;;;;;721.00;673.43;;;2.70;99.90;;;;;;6128897;23;20520;-83
2023/03/06 01:29:34;;;;;;;724.27;674.80;;;2.80;99.90;;;;;;6154566;23;20409;-82
2023/03/06 01:32:01;;;;;;;725.63;675.37;;;2.80;99.90;;;;;;6155057;23;20550;-83
2023/03/06 01:34:28;;;;;;;717.30;668.13;;;2.80;99.90;;;;;;6129212;23;20445;-83
2023/03/06 01:36:55;;;;;;;720.23;673.13;;;2.80;99.90;;;;;;6155768;23;20409;-83
2023/03/06 01:39:23;;;;;;;714.30;669.73;;;2.60;99.90;;;;;;6155346;23;20811;-83
2023/03/06 01:41:50;;;;;;;714.80;668.23;;;2.60;99.90;;;;;;6155754;23;20418;-83
2023/03/06 01:44:17;;;;;;;717.57;670.90;;;2.70;99.90;;;;;;6155465;23;20434;-83
2023/03/06 01:46:46;;;;;;;706.93;666.00;;;2.70;99.90;;;;;;6155471;23;20437;-83
2023/03/06 01:49:18;;;;;;;718.07;674.30;;;2.70;99.90;;;;;;6128498;23;20761;-83
2023/03/06 01:51:50;;;;;;;723.73;677.63;;;2.70;99.90;;;;;;6155814;23;20422;-83
2023/03/06 01:54:22;;;;;;;725.87;679.30;;;2.60;99.90;;;;;;6154476;23;20440;-83
2023/03/06 01:56:54;;;;;;;726.00;680.50;;;2.50;99.90;;;;;;6155095;23;20394;-83
2023/03/06 01:59:25;;;;;;;734.87;686.60;;;2.60;99.90;;;;;;6152848;23;20457;-85
2023/03/06 02:01:54;;;;;;;742.27;692.30;;;2.50;99.90;;;;;;6155402;23;21010;-85
2023/03/06 02:04:21;;;;;;;748.50;697.93;;;2.50;99.90;;;;;;6149419;23;20441;-85
2023/03/06 02:06:48;;;;;;;750.73;700.23;;;2.50;99.90;;;;;;6126015;23;20438;-85
2023/03/06 02:09:16;;;;;;;747.50;695.60;;;2.40;99.90;;;;;;6125431;23;20421;-85
2023/03/06 02:11:44;;;;;;;759.13;703.73;;;2.50;99.90;;;;;;6125825;23;20560;-85
2023/03/06 02:14:16;;;;;;;762.70;708.77;;;2.50;99.90;;;;;;6134874;23;20502;-85
2023/03/06 02:16:43;;;;;;;758.97;703.67;;;2.50;99.90;;;;;;6100330;23;20430;-85
2023/03/06 02:19:24;;;;;;;753.07;697.93;;;2.50;99.90;;;;;;6125074;23;20502;-85
2023/03/06 02:21:51;;;;;;;749.20;695.17;;;2.40;99.90;;;;;;6125647;23;20403;-85
2023/03/06 02:24:32;;;;;;;753.13;696.23;;;2.50;99.90;;;;;;6125369;23;20814;-85
2023/03/06 02:27:02;;;;;;;750.43;694.30;;;2.50;99.90;;;;;;6125112;23;20506;-85
2023/03/06 02:29:30;;;;;;;752.87;696.87;;;2.50;99.90;;;;;;6134746;23;20399;-85
2023/03/06 02:31:57;;;;;;;753.33;696.47;;;2.60;99.90;;;;;;6124796;23;20425;-85
2023/03/06 02:34:48;;;;;;;751.83;695.73;;;2.50;99.90;;;;;;6124743;23;21029;-84
2023/03/06 02:37:15;;;;;;;747.77;691.47;;;2.60;99.90;;;;;;6124688;23;20399;-85
2023/03/06 02:39:46;;;;;;;749.47;693.20;;;2.70;99.90;;;;;;6124006;23;20454;-85
2023/03/06 02:42:19;;;;;;;744.40;688.73;;;2.70;99.90;;;;;;6124587;23;20415;-84
2023/03/06 02:44:46;;;;;;;746.73;692.37;;;2.70;99.90;;;;;;6098973;23;20439;-85
2023/03/06 02:47:13;;;;;;;741.97;689.23;;;2.70;99.90;;;;;;6125036;23;20434;-84
2023/03/06 02:49:40;;;;;;;733.23;682.30;;;2.60;99.90;;;;;;6124304;23;20414;-85
2023/03/06 02:52:07;;;;;;;723.60;673.10;;;2.70;99.90;;;;;;6124680;23;20415;-84
2023/03/06 02:54:34;;;;;;;729.20;679.33;;;2.80;99.90;;;;;;6125301;23;20441;-85
2023/03/06 02:57:01;;;;;;;728.03;678.23;;;2.80;99.90;;;;;;6125051;23;20931;-84
2023/03/06 02:59:32;;;;;;;717.63;671.10;;;2.90;99.90;;;;;;6124724;23;20423;-84
2023/03/06 03:01:59;;;;;;;709.00;662.50;;;2.90;99.90;;;;;;6125035;23;20414;-84
2023/03/06 03:04:26;;;;;;;709.60;663.13;;;2.90;99.90;;;;;;6124153;23;20431;-85
2023/03/06 03:06:53;;;;;;;712.00;666.37;;;3.00;99.90;;;;;;6098206;23;20439;-84
2023/03/06 03:09:19;;;;;;;692.07;648.07;;;3.00;99.90;;;;;;6124072;23;20418;-84
2023/03/06 03:11:46;;;;;;;709.37;663.90;;;3.00;99.90;;;;;;6124292;23;20423;-84
2023/03/06 03:14:15;;;;;;;727.63;679.93;;;3.00;99.90;;;;;;6097326;23;20461;-84
2023/03/06 03:16:44;;;;;;;711.90;668.40;;;3.00;99.90;;;;;;6124676;23;20411;-84
2023/03/06 03:19:11;;;;;;;657.37;623.97;;;3.00;99.90;;;;;;6123663;23;20426;-84
2023/03/06 03:21:39;;;;;;;674.67;636.67;;;3.10;99.90;;;;;;6124553;23;20418;-84
2023/03/06 03:24:07;;;;;;;691.87;653.67;;;3.00;99.90;;;;;;6124567;23;20415;-84
2023/03/06 03:26:34;;;;;;;664.57;629.47;;;3.10;99.90;;;;;;6124160;23;20438;-84
2023/03/06 03:29:03;;;;;;;672.27;636.07;;;3.10;99.90;;;;;;6098042;23;20912;-84
2023/03/06 03:31:30;;;;;;;706.07;661.97;;;3.10;99.90;;;;;;6123858;23;20888;-84
2023/03/06 03:33:59;;;;;;;707.73;663.97;;;3.10;99.90;;;;;;6124551;23;20414;-85
2023/03/06 03:36:26;;;;;;;720.73;675.77;;;3.00;99.90;;;;;;6123829;23;20481;-83
2023/03/06 03:38:56;;;;;;;728.90;680.97;;;3.10;99.90;;;;;;6124232;23;20418;-84
2023/03/06 03:41:24;;;;;;;719.80;676.00;;;3.00;99.90;;;;;;6124632;23;20957;-82
2023/03/06 03:43:57;;;;;;;722.03;678.27;;;3.20;99.90;;;;;;6133827;23;20418;-81
2023/03/06 03:46:24;;;;;;;722.17;677.17;;;2.90;99.90;;;;;;6123474;23;20470;-83
2023/03/06 03:48:54;;;;;;;723.73;679.07;;;3.00;99.90;;;;;;6097252;23;20422;-84
2023/03/06 03:51:22;;;;;;;730.03;684.87;;;3.10;99.90;;;;;;6123281;23;20506;-82
2023/03/06 03:53:49;;;;;;;717.83;673.33;;;3.10;99.90;;;;;;6124570;23;20423;-83
2023/03/06 03:56:16;;;;;;;715.17;672.20;;;3.10;99.90;;;;;;6098010;23;20434;-83
2023/03/06 03:58:44;;;;;;;720.90;678.10;;;3.10;99.90;;;;;;6124557;23;20772;-83
2023/03/06 04:01:12;;;;;;;716.77;672.27;;;3.00;99.90;;;;;;6122748;23;20501;-83
2023/03/06 04:03:38;;;;;;;717.17;673.10;;;3.00;99.90;;;;;;6124617;23;20415;-83
2023/03/06 04:06:06;;;;;;;720.10;674.97;;;3.00;99.90;;;;;;6123399;23;21026;-83
2023/03/06 04:08:34;;;;;;;719.57;672.80;;;3.00;99.90;;;;;;6122997;23;20419;-83
2023/03/06 04:11:02;;;;;;;730.07;682.97;;;3.00;99.90;;;;;;6122978;23;20418;-83
2023/03/06 04:13:30;;;;;;;734.87;687.20;;;3.10;99.90;;;;;;6123701;23;20414;-82
2023/03/06 04:15:58;;;;;;;733.67;687.63;;;3.00;99.90;;;;;;6075044;23;20439;-83
2023/03/06 04:18:26;;;;;;;734.73;688.60;;;3.00;99.90;;;;;;6122883;23;20423;-82
2023/03/06 04:20:53;;;;;;;732.70;687.33;;;3.10;99.90;;;;;;6124329;23;20415;-82
2023/03/06 04:23:21;;;;;;;721.43;676.57;;;3.10;99.90;;;;;;6125883;23;20415;-82
2023/03/06 04:25:50;;;;;;;733.27;688.93;;;3.00;99.90;;;;;;6126495;23;20487;-82
2023/03/06 04:28:18;;;;;;;715.03;671.27;;;3.20;99.90;;;;;;6126322;23;20502;-81
2023/03/06 04:30:44;;;;;;;719.93;675.90;;;3.10;99.90;;;;;;6125630;23;20442;-82
2023/03/06 04:33:13;;;;;;;719.13;676.10;;;3.00;99.90;;;;;;6126531;23;20414;-82
2023/03/06 04:35:39;;;;;;;716.50;673.60;;;3.10;99.90;;;;;;6126095;23;20794;-82
2023/03/06 04:38:06;;;;;;;698.60;659.07;;;3.10;99.90;;;;;;6125892;23;20494;-81
2023/03/06 04:40:36;;;;;;;703.30;663.40;;;3.10;99.90;;;;;;6126461;23;20442;-84
2023/03/06 04:43:05;;;;;;;692.10;652.23;;;3.10;99.90;;;;;;6126637;23;20477;-83
2023/03/06 04:45:34;;;;;;;687.33;649.57;;;3.10;99.90;;;;;;6100162;23;20477;-83
2023/03/06 04:48:01;;;;;;;669.53;631.70;;;3.10;99.90;;;;;;6126059;23;20441;-83
2023/03/06 04:50:31;;;;;;;660.07;625.70;;;3.10;99.90;;;;;;6126092;23;20493;-82
2023/03/06 04:52:58;;;;;;;644.77;611.47;;;3.00;99.90;;;;;;6126783;23;20418;-82
2023/03/06 04:55:26;;;;;;;651.13;617.70;;;3.00;99.90;;;;;;6125994;23;20434;-83
2023/03/06 04:57:52;;;;;;;658.37;623.40;;;3.00;99.90;;;;;;6126029;23;20426;-83
2023/03/06 05:00:29;;;;;;;658.43;622.97;;;2.90;99.90;;;;;;6094095;23;20433;-82
2023/03/06 05:02:56;;;;;;;661.27;625.47;;;3.00;99.90;;;;;;6096199;23;20404;-82
2023/03/06 05:05:23;;;;;;;643.63;610.43;;;2.90;99.90;;;;;;6094212;23;20447;-82
2023/03/06 05:07:50;;;;;;;634.37;601.70;;;3.10;99.90;;;;;;6095196;23;20550;-82
2023/03/06 05:10:18;;;;;;;635.27;603.13;;;3.10;99.90;;;;;;6095774;23;20925;-82
2023/03/06 05:12:45;;;;;;;643.53;608.87;;;3.00;99.90;;;;;;6096027;23;20427;-82
2023/03/06 05:15:13;;;;;;;644.47;611.27;;;3.10;99.90;;;;;;6096912;23;20548;-82
2023/03/06 05:17:55;;;;;;;655.87;621.20;;;3.10;99.90;;;;;;6097752;23;20411;-83
2023/03/06 05:20:31;;;;;;;689.17;650.37;;;3.00;99.90;;;;;;6096844;23;20432;-82
2023/03/06 05:22:58;;;;;;;685.27;647.03;;;3.00;99.90;;;;;;6097702;23;20834;-82
2023/03/06 05:25:25;;;;;;;699.20;657.50;;;3.10;99.90;;;;;;6096151;23;20439;-81
2023/03/06 05:27:52;;;;;;;704.33;662.27;;;3.10;99.90;;;;;;6096230;23;20441;-82
2023/03/06 05:30:21;;;;;;;692.97;651.60;;;3.10;99.90;;;;;;6095896;23;20415;-82
2023/03/06 05:32:48;;;;;;;697.80;658.60;;;3.00;99.90;;;;;;6096289;23;20415;-81
2023/03/06 05:35:20;;;;;;;700.33;660.93;;;3.20;99.90;;;;;;6096501;23;20435;-81
2023/03/06 05:37:47;;;;;;;694.20;654.60;;;3.00;99.90;;;;;;6096145;23;20793;-81
2023/03/06 05:40:15;;;;;;;661.43;626.77;;;3.20;99.90;;;;;;6095384;23;20438;-82
2023/03/06 05:42:42;;;;;;;634.13;603.03;;;3.00;99.90;;;;;;6096119;23;20446;-80
2023/03/06 05:45:10;;;;;;;641.73;608.23;;;3.00;99.90;;;;;;6096392;23;20436;-81
2023/03/06 05:47:37;;;;;;;641.33;608.07;;;3.00;99.90;;;;;;6096839;23;20435;-81
2023/03/06 05:50:07;;;;;;;622.40;591.30;;;2.90;99.90;;;;;;6096129;23;20470;-80
2023/03/06 05:52:36;;;;;;;604.33;574.90;;;3.00;99.90;;;;;;6097112;23;20420;-81
2023/03/06 05:55:03;;;;;;;591.60;562.40;;;3.00;99.90;;;;;;6096572;23;20440;-81
2023/03/06 05:57:30;;;;;;;560.90;533.10;;;2.90;99.90;;;;;;6096853;23;20416;-81
2023/03/06 05:59:57;;;;;;;537.40;512.50;;;2.90;99.90;;;;;;6106079;23;20429;-81
2023/03/06 06:02:25;;;;;;;502.77;479.43;;;2.90;99.90;;;;;;6125832;23;20415;-86
2023/03/06 06:04:51;;;;;;;449.97;430.70;;;3.00;99.90;;;;;;6101500;23;20435;-88
2023/03/06 06:07:18;;;;;;;435.03;416.33;;;2.90;99.90;;;;;;6125800;23;20447;-85
2023/03/06 06:09:46;;;;;;;405.90;388.57;;;2.80;99.90;;;;;;6098904;23;20418;-83
2023/03/06 06:12:14;;;;;;;397.30;380.63;;;2.80;99.90;;;;;;6124906;23;20519;-85
2023/03/06 06:14:41;;;;;;;396.23;379.33;;;2.80;99.90;;;;;;6124802;23;20466;-83
2023/03/06 06:17:08;;;;;;;392.07;375.47;;;2.90;99.90;;;;;;6098884;23;20415;-84
2023/03/06 06:19:35;;;;;;;405.87;388.53;;;2.80;99.90;;;;;;6125433;23;20415;-86
2023/03/06 06:22:03;;;;;;;390.63;373.93;;;2.80;99.90;;;;;;6125734;23;20425;-85
2023/03/06 06:24:30;;;;;;;414.97;397.17;;;2.90;99.90;;;;;;6124454;23;20964;-84
2023/03/06 06:26:59;;;;;;;422.83;404.03;;;3.00;99.90;;;;;;6125493;23;20414;-85
2023/03/06 06:29:27;;;;;;;447.90;428.10;;;3.10;99.90;;;;;;6124884;23;20414;-85
2023/03/06 06:31:54;;;;;;;458.33;437.83;;;3.00;99.90;;;;;;6125289;23;20425;-84
2023/03/06 06:34:23;;;;;;;457.13;436.77;;;2.90;99.90;;;;;;6125824;23;20435;-84
2023/03/06 06:36:50;;;;;;;473.50;452.40;;;2.80;99.90;;;;;;6125821;23;20415;-84
2023/03/06 06:39:19;;;;;;;476.10;454.23;;;2.90;99.90;;;;;;6125314;23;20419;-84
2023/03/06 06:41:47;;;;;;;488.73;466.17;;;2.70;99.90;;;;;;6124485;23;20418;-85
2023/03/06 06:44:16;;;;;;;525.47;501.07;;;2.70;99.90;;;;;;6125049;23;20434;-84
2023/03/06 06:46:44;;;;;;;522.53;497.93;;;2.70;99.90;;;;;;6074408;23;20433;-89
2023/03/06 06:49:11;;;;;;;545.33;519.20;;;2.70;99.90;;;;;;6124295;23;20530;-87
2023/03/06 06:51:39;;;;;;;579.23;550.17;;;2.60;99.90;;;;;;6125517;23;20415;-85
2023/03/06 06:54:07;;;;;;;583.40;553.73;;;2.80;99.90;;;;;;6099091;23;20419;-85
2023/03/06 06:56:34;;;;;;;605.70;573.93;;;2.80;99.90;;;;;;6125246;23;20501;-87
2023/03/06 06:59:01;;;;;;;602.37;571.67;;;2.70;99.90;;;;;;6100049;23;20423;-91
2023/03/06 07:01:29;;;;;;;594.60;564.40;;;2.90;99.90;;;;;;6125466;23;20423;-85
2023/03/06 07:03:56;;;;;;;590.37;560.37;;;3.00;99.90;;;;;;6125596;23;20414;-87
2023/03/06 07:06:23;;;;;;;574.33;546.83;;;2.90;99.90;;;;;;6124992;23;20414;-85
2023/03/06 07:08:50;;;;;;;584.37;555.63;;;2.90;99.90;;;;;;6098860;23;20449;-86
2023/03/06 07:11:18;;;;;;;582.80;552.83;;;2.90;99.90;;;;;;6125205;23;20418;-86
2023/03/06 07:13:46;;;;;;;577.90;548.57;;;3.00;99.90;;;;;;6125526;23;20414;-86
2023/03/06 07:16:16;;;;;;;569.30;541.70;;;3.00;99.90;;;;;;6125224;23;20435;-82
2023/03/06 07:18:44;;;;;;;556.47;527.60;;;3.10;99.90;;;;;;6125163;23;20414;-84
2023/03/06 07:21:11;;;;;;;550.83;522.97;;;3.20;99.90;;;;;;6124633;23;20768;-83
2023/03/06 07:23:39;;;;;;;540.60;514.20;;;3.20;99.90;;;;;;6125061;23;20915;-83
2023/03/06 07:26:06;;;;;;;523.40;498.83;;;3.30;99.90;;;;;;6125211;23;20445;-83
2023/03/06 07:28:33;;;;;;;499.07;475.00;;;3.40;99.90;;;;;;6124797;23;20975;-83
2023/03/06 07:31:00;;;;;;;491.63;468.70;;;3.40;99.90;;;;;;6125147;23;20750;-82
2023/03/06 07:33:27;;;;;;;423.03;403.07;;;3.50;99.90;;;;;;6124981;23;20419;-83
2023/03/06 07:35:55;;;;;;;413.23;394.60;;;3.40;99.90;;;;;;6124732;23;20946;-83
2023/03/06 07:38:22;;;;;;;384.50;367.77;;;3.50;99.90;;;;;;6124614;23;21010;-83
2023/03/06 07:40:51;;;;;;;329.60;314.00;;;3.60;99.90;;;;;;6125009;23;20421;-82
2023/03/06 07:43:18;;;;;;;339.57;323.77;;;3.60;99.90;;;;;;6124880;23;20414;-83
2023/03/06 07:45:46;;;;;;;142.70;133.60;;;3.60;99.90;;;;;;6125087;23;20494;-83
2023/03/06 07:48:13;;;;;;;183.97;173.57;;;3.60;99.90;;;;;;6098807;23;20518;-83
2023/03/06 07:50:42;;;;;;;141.70;132.70;;;3.60;99.90;;;;;;6124882;23;20808;-83
2023/03/06 07:53:10;;;;;;;119.70;111.97;;;3.60;99.90;;;;;;6073862;23;20421;-82
2023/03/06 07:55:40;;;;;;;120.70;112.33;;;3.70;99.90;;;;;;6124030;23;20431;-83
2023/03/06 07:58:06;;;;;;;103.30;94.83;;;3.90;99.90;;;;;;6123443;23;20461;-82
2023/03/06 08:00:43;;;;;;;120.80;112.80;;;3.80;99.90;;;;;;6127764;23;20454;-81
2023/03/06 08:03:11;;;;;;;123.33;114.70;;;3.90;99.90;;;;;;6124148;23;20413;-81
2023/03/06 08:05:38;;;;;;;105.83;98.53;;;4.00;99.90;;;;;;6145352;23;20496;-81
2023/03/06 08:08:05;;;;;;;109.37;100.57;;;4.10;99.90;;;;;;6163184;23;20961;-80
2023/03/06 08:10:34;;;;;;;80.60;73.17;;;4.00;99.90;;;;;;6162947;23;20421;-81
2023/03/06 08:13:01;;;;;;;61.83;55.73;;;4.00;99.90;;;;;;6153758;23;20457;-81
2023/03/06 08:15:29;;;;;;;62.03;47.77;;;3.80;99.90;;;;;;6127273;23;20438;-80
2023/03/06 08:17:57;;;;;;;63.60;53.63;;;3.80;99.90;;;;;;6163061;23;20418;-81
2023/03/06 08:20:24;;;;;;;71.30;59.50;;;4.00;99.90;;;;;;6163076;23;20413;-80
2023/03/06 08:22:53;;;;;;;68.37;61.60;;;3.90;99.90;;;;;;6154027;23;20481;-81
2023/03/06 08:25:23;;;;;;;65.30;52.87;;;4.30;99.90;;;;;;6162223;23;20444;-81
2023/03/06 08:27:53;;;;;;;58.53;51.80;;;4.50;99.90;;;;;;6162689;23;20776;-80
2023/03/06 08:30:20;;;;;;;66.13;45.73;;;4.50;99.90;;;;;;6163023;23;20590;-81
2023/03/06 08:32:48;;;;;;;56.70;40.87;;;4.50;99.90;;;;;;6163402;23;20757;-80
2023/03/06 08:35:15;;;;;;;54.80;39.60;;;4.60;99.90;;;;;;6163722;23;20426;-80
2023/03/06 08:37:42;;;;;;;57.33;36.10;;;4.70;99.90;;;;;;6153658;23;20414;-81
2023/03/06 08:40:11;;;;;;;48.20;28.80;;;4.60;99.90;;;;;;6163280;23;20410;-80
2023/03/06 08:42:39;;;;;;;55.37;31.23;;;4.70;99.90;;;;;;6163393;23;20418;-81
2023/03/06 08:45:09;;;;;;;50.60;28.90;;;4.80;99.90;;;;;;6163722;23;20437;-81
2023/03/06 08:47:39;;;;;;;49.63;28.73;;;4.80;99.90;;;;;;6154001;23;20894;-81
2023/03/06 08:50:07;;;;;;;54.23;29.73;;;4.70;99.90;;;;;;6153882;23;20446;-82
2023/03/06 08:52:41;;;;;;;46.50;27.23;;;4.80;99.90;;;;;;6162390;23;20417;-83
2023/03/06 08:55:09;;;;;;;56.30;27.43;;;5.00;99.90;;;;;;6163691;23;20507;-81
2023/03/06 08:57:36;;;;;;;47.43;25.63;;;5.10;99.90;;;;;;6154421;23;20421;-82
2023/03/06 09:00:12;;;;;;;51.60;27.30;;;5.20;99.90;;;;;;6161805;23;20420;-82
2023/03/06 09:02:39;;;;;;;46.57;25.07;;;5.10;99.90;;;;;;6163331;23;20433;-82
2023/03/06 09:05:10;;;;;;;52.10;25.20;;;5.30;99.90;;;;;;6163198;23;20437;-82
2023/03/06 09:07:39;;;;;;;38.50;21.20;;;5.10;99.90;;;;;;6164980;23;20414;-82
2023/03/06 09:10:07;;;;;;;56.20;27.67;;;5.00;99.90;;;;;;6164560;23;20418;-82
2023/03/06 09:12:37;;;;;;;48.87;26.70;;;5.20;99.90;;;;;;6163473;23;20417;-82
2023/03/06 09:15:05;;;;;;;42.67;23.60;;;5.20;99.90;;;;;;6155047;23;20469;-82
2023/03/06 09:17:35;;;;;;;52.17;25.67;;;5.40;99.90;;;;;;6155380;23;20425;-82
2023/03/06 09:20:08;;;;;;;45.57;24.13;;;5.30;99.90;;;;;;6165057;23;20413;-82
2023/03/06 09:22:41;;;;;;;47.83;24.70;;;5.40;99.90;;;;;;6164760;23;20417;-82
2023/03/06 09:25:09;;;;;;;41.50;22.80;;;5.20;99.90;;;;;;6165160;23;20453;-82
2023/03/06 09:27:37;;;;;;;47.40;24.00;;;5.40;99.90;;;;;;6164788;23;20446;-82
2023/03/06 09:30:07;;;;;;;43.90;23.77;;;5.40;99.90;;;;;;6165192;23;20423;-82
2023/03/06 09:32:35;;;;;;;36.53;23.07;;;5.30;99.90;;;;;;6165201;23;20487;-81
2023/03/06 09:35:02;;;;;;;51.37;25.37;;;5.30;99.90;;;;;;6164989;23;20441;-82
2023/03/06 09:37:29;;;;;;;50.50;24.47;;;5.40;99.90;;;;;;6155701;23;20420;-82
2023/03/06 09:40:03;;;;;;;43.90;24.43;;;5.60;99.90;;;;;;6164717;23;20410;-82
2023/03/06 09:42:35;;;;;;;41.63;24.40;;;5.60;99.90;;;;;;6164950;23;20460;-83
2023/03/06 09:45:10;;;;;;;40.50;21.83;;;5.50;99.90;;;;;;6164647;23;20458;-82
2023/03/06 09:47:50;;;;;;;41.50;23.53;;;5.50;99.90;;;;;;6165045;23;20434;-82
2023/03/06 09:50:30;;;;;;;39.10;21.87;;;5.60;99.90;;;;;;6165267;23;20409;-83
2023/03/06 09:53:35;;;;;;;42.17;20.87;;;5.70;99.90;;;;;;6155547;23;20450;-83
2023/03/06 09:56:10;;;;;;;38.43;22.60;;;5.70;99.90;;;;;;6140833;23;20434;-83
2023/03/06 09:58:43;;;;;;;37.20;20.70;;;5.60;99.90;;;;;;6163580;23;20412;-83
2023/03/06 10:01:19;;;;;;;38.60;20.67;;;5.60;99.90;;;;;;6164532;23;20426;-82
2023/03/06 10:04:07;;;;;;;;;;;;;;;;;;;;;
2023/03/06 10:06:39;;;;;;;37.13;20.80;;;5.50;99.90;;;;;;6131011;23;20447;-82
2023/03/06 10:09:13;;;;;;;35.80;19.63;;;5.60;99.90;;;;;;6134248;23;20445;-82
2023/03/06 10:11:54;;;;;;;38.80;21.67;;;5.40;99.90;;;;;;6134853;23;20418;-83
2023/03/06 10:14:31;;;;;;;33.87;16.20;;;5.50;99.90;;;;;;6135574;23;20919;-82
2023/03/06 10:28:18;;;;;;;40.23;19.60;;;4.80;99.90;;;;;;6124780;23;20454;-82
2023/03/06 10:30:51;;;;;;;38.50;19.90;;;5.00;99.90;;;;;;6133557;23;20422;-82
2023/03/06 10:33:27;;;;;;;36.57;18.83;;;5.10;99.90;;;;;;6133647;23;20431;-82
2023/03/06 10:35:55;;;;;;;39.60;22.95;;;5.20;99.90;;;;;;6132383;23;20424;-82
2023/03/06 10:38:26;;;;;;;34.27;18.47;;;5.20;99.90;;;;;;6132821;23;20163;-82
2023/03/06 10:41:07;;;;;;;33.47;17.47;;;5.30;99.90;;;;;;6123556;23;20402;-82
2023/03/06 10:43:35;;;;;;;33.67;19.90;;;5.20;99.90;;;;;;6123976;23;20883;-82
2023/03/06 10:46:02;;;;;;;35.00;17.93;;;5.30;99.90;;;;;;6123713;23;20489;-82
2023/03/06 10:48:34;;;;;;;38.37;18.57;;;5.40;99.90;;;;;;6133351;23;20434;-82
2023/03/06 10:51:17;;;;;;;36.27;18.70;;;5.50;99.90;;;;;;6133475;23;20415;-82
2023/03/06 10:53:54;;;;;;;32.30;17.23;;;5.80;99.90;;;;;;6124515;23;20408;-82
2023/03/06 10:56:40;;;;;;;26.53;15.70;;;6.10;99.90;;;;;;6132234;23;20497;-82
2023/03/06 11:01:57;;;;;;;26.83;15.77;;;6.00;99.90;;;;;;6117884;23;20429;-82
2023/03/06 11:04:37;;;;;;;39.87;17.97;;;5.70;99.90;;;;;;6133822;23;20435;-82
2023/03/06 11:07:19;;;;;;;30.83;16.33;;;5.80;99.90;;;;;;6133681;23;20415;-82
2023/03/06 11:10:18;;;;;;;36.37;16.37;;;5.70;99.90;;;;;;6133011;23;20442;-82
2023/03/06 11:13:01;;;;;;;30.53;16.13;;;5.70;99.90;;;;;;6133958;23;20481;-82
2023/03/06 11:15:32;;;;;;;29.50;15.03;;;5.90;99.90;;;;;;6133475;23;20445;-82
2023/03/06 11:18:03;;;;;;;29.00;16.23;;;5.80;99.90;;;;;;6124750;23;20455;-82
2023/03/06 11:20:44;;;;;;;31.63;16.47;;;5.80;99.90;;;;;;6133846;23;20970;-82
2023/03/06 11:23:17;;;;;;;29.93;14.00;;;5.90;99.90;;;;;;6124480;23;20462;-83
2023/03/06 11:26:03;;;;;;;31.03;14.93;;;6.10;99.90;;;;;;6133737;23;20454;-82
2023/03/06 11:28:35;;;;;;;29.63;15.20;;;6.10;99.90;;;;;;6133203;23;20470;-82
2023/03/06 11:31:12;;;;;;;32.53;16.57;;;5.80;99.90;;;;;;6133774;23;20422;-82
2023/03/06 11:33:49;;;;;;;27.53;14.90;;;5.70;99.90;;;;;;6133887;23;20489;-82
2023/03/06 11:36:23;;;;;;;23.40;13.90;;;5.60;99.90;;;;;;6134073;23;20438;-82
2023/03/06 11:38:52;;;;;;;32.60;16.90;;;5.20;99.90;;;;;;6134069;23;20482;-82
2023/03/06 11:41:31;;;;;;;31.83;17.00;;;5.20;99.90;;;;;;6124452;23;20419;-82
2023/03/06 11:44:05;;;;;;;29.30;14.97;;;5.20;99.90;;;;;;6134195;23;20519;-81
2023/03/06 11:46:38;;;;;;;29.73;15.13;;;5.00;99.90;;;;;;6133599;23;20390;-81
2023/03/06 11:49:16;;;;;;;35.07;18.50;;;4.90;99.90;;;;;;6133550;23;20510;-81
2023/03/06 11:51:49;;;;;;;27.13;15.07;;;4.90;99.90;;;;;;6124069;23;20458;-82
2023/03/06 11:54:22;;;;;;;37.33;18.73;;;4.60;99.90;;;;;;6133784;23;20465;-82
2023/03/06 11:56:55;;;;;;;34.40;19.97;;;4.70;99.90;;;;;;6134477;23;20425;-84
2023/03/06 11:59:52;;;;;;;32.70;21.20;;;4.80;99.90;;;;;;6124156;23;20423;-82
2023/03/06 12:02:29;;;;;;;38.60;23.93;;;4.70;99.90;;;;;;6134497;23;20422;-83
2023/03/06 12:05:05;;;;;;;48.83;21.40;;;5.10;99.90;;;;;;6133952;23;20485;-81
2023/03/06 12:07:35;;;;;;;29.87;18.50;;;5.00;99.90;;;;;;6134685;23;20485;-81
2023/03/06 12:10:13;;;;;;;34.03;20.50;;;5.20;99.90;;;;;;6133854;23;20462;-81
2023/03/06 12:13:14;;;;;;;35.37;19.47;;;5.20;99.90;;;;;;6132651;23;20831;-81
2023/03/06 12:16:00;;;;;;;32.97;17.53;;;5.10;99.90;;;;;;6133238;23;20435;-81
2023/03/06 12:18:41;;;;;;;36.53;20.57;;;4.90;99.90;;;;;;6124609;23;20395;-81
2023/03/06 12:21:21;;;;;;;37.80;23.10;;;4.90;99.90;;;;;;6134079;23;20379;-81
2023/03/06 12:24:02;;;;;;;43.07;22.83;;;4.90;99.90;;;;;;6134605;23;20414;-81
2023/03/06 12:26:42;;;;;;;39.07;22.53;;;4.70;99.90;;;;;;6134078;23;20414;-81
2023/03/06 12:29:27;;;;;;;39.73;28.27;;;4.70;99.90;;;;;;6133908;23;20434;-82
2023/03/06 12:32:09;;;;;;;46.40;31.13;;;4.60;99.90;;;;;;6134207;23;20419;-81
2023/03/06 12:34:58;;;;;;;42.97;37.27;;;4.50;99.90;;;;;;6134578;23;20510;-81
2023/03/06 12:37:35;;;;;;;58.57;53.63;;;4.50;99.90;;;;;;6134540;23;20410;-81
2023/03/06 12:40:40;;;;;;;62.60;57.13;;;4.40;99.90;;;;;;6134433;23;20420;-81
2023/03/06 12:43:36;;;;;;;80.17;74.53;;;4.40;99.90;;;;;;6136102;23;20445;-81
2023/03/06 12:46:11;;;;;;;95.70;89.13;;;4.40;99.90;;;;;;6136482;23;20427;-81
2023/03/06 12:48:42;;;;;;;118.83;111.60;;;4.20;99.90;;;;;;6136139;23;20759;-81
2023/03/06 12:51:14;;;;;;;91.33;85.23;;;4.20;99.90;;;;;;6126394;23;20406;-80
2023/03/06 12:53:42;;;;;;;86.67;80.80;;;4.40;99.90;;;;;;6136518;23;20462;-81
2023/03/06 12:56:14;;;;;;;149.10;140.67;;;4.10;99.90;;;;;;6135731;23;20434;-81